Lakefield, MN (56150)

11:29 PM CST on January 19, 2018 (GMT -0600)
Jackson Municipal | | Change Station
Active Advisory: Winter Storm Watch

Elev 1444 ft 43.65 °N, 94.99 °W | Updated 14 minutes ago

Partly Cloudy
Partly Cloudy
36 °F
Feels Like 29 °F
N
8
Wind Variable Wind from NW

Today
High -- | Low -- °F
--% Chance of Precip.
Yesterday
High -- | Low -- °F
Precip. -- in
Pressure 29.73 in
Visibility 10.0 miles
Clouds Clear
Windchill 29 °F
Dew Point 30 °F
Humidity 81%
Rainfall 0.00 in
Snow Depth Not available.
7:48 AM 5:14 PM
Waxing Crescent, 9% visible
METAR KMJQ 200515Z AUTO 31007KT 10SM CLR 02/M01 A2973 RMK AO2 PWINO
Pressure 29.73 in
Visibility 10.0 miles
Clouds Clear
Windchill 29 °F
Dew Point 30 °F
Humidity 81%
Rainfall 0.00 in
Snow Depth Not available.
7:48 AM 5:14 PM
Waxing Crescent, 9% visible
METAR KMJQ 200515Z AUTO 31007KT 10SM CLR 02/M01 A2973 RMK AO2 PWINO

Get Your Daily Forecast Email!

Thanks for signing up!

Be on the lookout for a verification email in your inbox.

You'll start receiving severe weather alerts in your inbox..

×

10-Day Weather Forecast

Almanac

Astronomy

Jan. 19, 2018 Rise Set
Actual Time
Civil Twilight
Nautical Twilight
Astronomical Twilight
Moon
Length of Visible Light
Length of Day
Tomorrow will be .
, % of the Moon is Illuminated

Today's Extremes

State Highs State Lows

Community

WunderPhotos

Category 6

Welcome to Category 6. This is the collective home for Weather Underground's featured writeups by Dr. Jeff Masters (right), Bob Henson (left), Chris Burt, and other regular contributors.

Nearby

Air Quality

  Air Quality AQ Index Pollutant
Not available.

Snow Depth

Station Depth Elevation

Earthquake Activity

City Distance Mag. Time & Date
Minimum magnitude displayed is 2.5.

Coastal Water Temperatures

Place Temperature

Stations

Nearby Weather Stations

Station Location Temp. Windchill Dew Point Humidity Wind Precip. Elev Updated Type
                   

Watches & Warnings

Winter Storm Watch
Issued: 8:42 PM CST Jan. 19, 2018 – National Weather Service

... Winter Storm Watch remains in effect from Sunday evening
through Monday afternoon...

* what... heavy snow possible. Travel will be very difficult to
impossible, including during the morning commute on Monday.
Total snow accumulations of 7 to 10 inches, with localized
amounts up to 12 inches, are possible.

* Where... portions of northwest Iowa and southwest Minnesota.

* When... from Sunday evening through Monday afternoon.

* Additional details... significant reductions in visibility are
possible.

Precautionary/preparedness actions...

A Winter Storm Watch means there is potential for significant
snow, sleet or ice accumulations that may impact travel. Continue
to monitor the latest forecasts.